Corning, Iowa
Current Conditions -  °F | °C
As of 7:55 AM on Wednesday 28 Jan 2015 (Local Time) from KCSQ Reporting Station
Haze Haze  
Wind Chill: 17°   Ceiling: Unl
Heat Index: 28°   Visibility: 3mi
Dew Point: 28°   Wind: 15mph
Humidity: 100%   Direction: 130°SE
Pressure: 29.95"   Gusts: NA
Location:  40.99°N, 94.74°W
Report Text: KCSQ 281355Z AUTO 13013KT 3SM BR CLR M02/M02 A2995 RMK AO2
Loading
Personal Weather Stations






























Interactive Weather Map New forecast layout! Learn more

10-Day Weather Forecast

Advertisements
Track Severe Weather on mobile